createdAt,value
2019-05-13T00:21:26.199Z,5.4
2019-05-13T00:32:33.694Z,5.2
2019-05-13T01:35:58.360Z,4.1
2019-05-13T02:08:54.563Z,3.6
2019-05-13T02:19:14.122Z,3.6
2019-05-13T02:30:28.320Z,3.2
2019-05-13T02:41:42.894Z,3.1
2019-05-13T02:57:56.556Z,3.1
2019-05-13T03:08:56.311Z,3.0
2019-05-13T03:19:52.722Z,2.7
2019-05-13T04:14:52.750Z,2.0
2019-05-13T04:25:14.802Z,2.0
2019-05-13T04:51:24.698Z,2.0
2019-05-13T05:02:38.376Z,1.9
2019-05-13T05:12:51.715Z,2.1
2019-05-13T05:23:13.289Z,2.2
2019-05-13T05:33:45.684Z,2.5
2019-05-13T05:44:51.808Z,2.8
2019-05-13T05:58:22.824Z,3.8
2019-05-13T06:08:35.051Z,3.8
2019-05-13T06:35:26.616Z,6.0
2019-05-13T06:45:42.000Z,6.0
2019-05-13T06:55:57.429Z,6.4
2019-05-13T07:06:42.090Z,7.3
2019-05-13T07:16:55.499Z,7.3
2019-05-13T07:27:11.962Z,7.9
2019-05-13T07:37:22.033Z,8.7
2019-05-13T07:47:35.138Z,10.2
2019-05-13T07:57:51.274Z,12.1
2019-05-13T08:08:24.126Z,16.1
2019-05-13T08:18:37.801Z,16.2
2019-05-13T08:29:00.506Z,18.0
2019-05-13T08:39:03.004Z,19.8
2019-05-13T08:49:15.126Z,21.3
2019-05-13T08:59:31.660Z,22.7
2019-05-13T09:09:41.999Z,24.1
2019-05-13T09:19:52.710Z,25.5
2019-05-13T09:30:05.974Z,26.2
2019-05-13T09:40:22.199Z,27.2
2019-05-13T09:50:35.255Z,27.9
2019-05-13T10:00:47.644Z,28.7
2019-05-13T10:11:06.023Z,29.3
2019-05-13T10:21:54.212Z,30.3
2019-05-13T10:32:42.433Z,30.7
2019-05-13T10:42:52.903Z,30.7
2019-05-13T10:53:06.433Z,31.2
2019-05-13T11:03:23.945Z,31.5
2019-05-13T11:13:50.401Z,31.7
2019-05-13T11:23:52.864Z,31.9
2019-05-13T11:34:14.645Z,32.1
2019-05-13T11:44:33.355Z,32.0
2019-05-13T11:55:03.034Z,31.9
2019-05-13T12:05:22.651Z,31.5
2019-05-13T12:16:04.680Z,30.7
2019-05-13T12:26:16.748Z,30.6
2019-05-13T12:36:28.860Z,30.4
2019-05-13T12:47:13.879Z,30.2
2019-05-13T12:57:27.501Z,30.2
2019-05-13T13:20:42.537Z,30.0
2019-05-13T13:32:24.831Z,30.0
2019-05-13T13:42:36.268Z,30.0
2019-05-13T14:06:44.448Z,30.1
2019-05-13T14:22:03.536Z,29.8
2019-05-13T14:48:28.802Z,29.1
2019-05-13T15:00:16.303Z,28.3
2019-05-13T15:12:10.127Z,27.3
2019-05-13T15:22:36.459Z,27.3
2019-05-13T15:40:15.689Z,24.8
2019-05-13T15:50:46.117Z,24.8
2019-05-13T16:01:17.665Z,24.0
2019-05-13T16:11:37.612Z,23.0
2019-05-13T16:37:32.143Z,20.8
2019-05-13T17:27:01.498Z,18.7
2019-05-13T17:52:47.418Z,18.1
2019-05-13T18:05:42.033Z,18.0
2019-05-13T18:29:27.758Z,17.0
2019-05-13T18:59:57.388Z,16.2
2019-05-13T19:10:48.431Z,15.5
2019-05-13T19:34:43.549Z,15.0
2019-05-13T19:45:52.206Z,13.9
2019-05-13T19:57:58.149Z,13.5
2019-05-13T20:09:02.466Z,12.9
2019-05-13T20:19:50.794Z,12.9
2019-05-13T20:31:28.487Z,12.1
2019-05-13T20:42:20.096Z,11.6
